Latest Weather Observations for Gelantipy

IDV60801

Issued at 6:31 pm EST Monday 31 August 2015 (issued every 30 minutes, with the page automatically refreshed every 10 minutes)

About weather observations | Map of weather stations | Latest weather observations for VIC | Other Formats
Station Details ID: 084142 Name: GELANTIPY Lat: -37.22 Lon: 148.26 Height: 755.0 m
Data from the previous 72 hours. | See also: Recent months at Gelantipy
Date/Time
EST
Temp
°C
App
Temp
°C
Dew
Point
Rel
Hum
%
Delta-T
°C
Wind Press
QNH
hPa
Press
MSL
hPa
Rain
since 9 am
mm
Dir
 
Spd
km/h
Gust
km/h
Spd
kts
Gust
kts
31/06:30pm 4.4 1.3 3.5 94 0.4 SSW 9 13 5 7 1016.4 1017.1 0.0
31/06:00pm 4.7 1.6 3.7 93 0.4 SSW 9 15 5 8 1016.3 1017.0 0.0
31/05:30pm 4.8 1.6 3.3 90 0.7 SSW 9 17 5 9 1016.2 1016.9 0.0
31/05:00pm 5.3 1.7 2.8 84 1.1 S 11 17 6 9 1016.1 1016.8 0.0
31/04:30pm 5.7 2.1 2.9 82 1.2 S 11 17 6 9 1016.0 1016.7 0.0
31/04:00pm 5.9 2.0 3.2 83 1.2 SSE 13 19 7 10 1016.0 1016.7 0.0
31/03:30pm 6.4 2.8 3.0 79 1.5 S 11 19 6 10 1016.0 1016.7 0.0
31/03:00pm 6.3 2.6 2.6 77 1.6 SSW 11 17 6 9 1016.1 1016.8 0.0
31/02:30pm 6.3 2.2 2.4 76 1.7 SSW 13 17 7 9 1016.2 1016.9 0.0
31/02:00pm 6.4 2.8 2.7 77 1.6 SSW 11 17 6 9 1016.2 1016.9 0.0
31/01:30pm 6.0 2.3 2.6 79 1.5 SSW 11 17 6 9 1016.5 1017.2 0.0
31/01:00pm 6.4 3.2 3.0 79 1.5 SSW 9 17 5 9 1016.7 1017.4 0.0
31/12:30pm 6.2 3.3 2.5 77 1.6 WSW 7 13 4 7 1017.0 1017.6 0.0
31/12:00pm 5.8 2.5 2.6 80 1.4 SW 9 13 5 7 1017.4 1018.1 0.0
31/11:30am 5.2 1.8 2.0 80 1.3 SW 9 15 5 8 1017.9 1018.6 0.0
31/11:00am 5.0 1.6 1.7 79 1.4 SW 9 13 5 7 1017.9 1018.6 0.0
31/10:30am 4.5 1.0 1.5 81 1.2 SSW 9 17 5 9 1017.9 1018.6 0.0
31/10:00am 4.2 1.3 1.6 83 1.1 W 6 11 3 6 1018.1 1018.8 0.0
31/09:30am 3.5 0.0 1.5 87 0.8 WSW 9 13 5 7 1018.3 1019.1 0.0
31/09:00am 2.9 -0.6 1.3 89 0.6 SW 9 13 5 7 1018.5 1019.2 0.2
31/08:30am 2.5 -1.3 1.9 96 0.2 W 11 13 6 7 1018.5 1019.2 0.2
31/08:00am 2.0 -1.0 1.9 99 0.0 W 7 9 4 5 1018.3 1019.1 0.2
31/07:30am 1.7 -0.8 1.6 99 0.0 SW 4 6 2 3 1018.3 1019.1 0.2
31/07:00am 1.5 -1.4 1.4 99 0.0 SSW 6 9 3 5 1018.1 1018.8 0.2
31/06:30am 1.3 -1.6 1.2 99 0.0 SW 6 9 3 5 1018.1 1018.8 0.2
31/06:00am 1.0 -2.0 0.9 99 0.0 SSW 6 9 3 5 1018.0 1018.7 0.2
31/05:30am 0.9 -2.1 0.6 98 0.1 WSW 6 7 3 4 1017.9 1018.6 0.2
31/05:00am 0.8 -2.2 0.5 98 0.1 SW 6 9 3 5 1018.0 1018.7 0.2
31/04:30am 0.7 -1.2 0.3 97 0.2 CALM 0 0 0 0 1017.9 1018.6 0.2
31/04:00am 0.9 -1.0 0.5 97 0.2 CALM 0 0 0 0 1017.8 1018.5 0.2
31/03:30am 0.6 -1.4 0.2 97 0.2 CALM 0 0 0 0 1017.8 1018.5 0.2
31/03:00am 0.9 -2.3 0.5 97 0.2 WNW 7 9 4 5 1018.0 1018.7 0.2
31/02:30am 0.7 -2.4 0.3 97 0.2 W 6 9 3 5 1018.5 1019.2 0.2
31/02:00am 0.9 -1.0 0.5 97 0.2 CALM 0 0 0 0 1018.9 1019.6 0.2
31/01:30am 1.3 -0.5 1.0 98 0.1 CALM 0 0 0 0 1019.2 1019.9 0.2
31/01:00am 1.3 -0.5 1.0 98 0.1 CALM 0 0 0 0 1019.4 1020.2 0.2
31/12:30am 1.4 -0.4 1.3 99 0.0 CALM 0 0 0 0 1019.6 1020.4 0.2
31/12:00am 1.0 -2.2 0.7 98 0.1 W 7 7 4 4 1019.7 1020.5 0.2
 
Date/Time
EST
Temp
°C
App
Temp
°C
Dew
Point
Rel
Hum
%
Delta-T
°C
Wind Press
QNH
hPa
Press
MSL
hPa
Rain
since 9 am
mm
Dir
 
Spd
km/h
Gust
km/h
Spd
kts
Gust
kts
30/11:30pm 1.4 -0.4 1.1 98 0.1 CALM 0 0 0 0 1020.0 1020.7 0.0
30/11:00pm 1.8 -0.3 1.5 98 0.1 WNW 2 6 1 3 1020.3 1021.0 0.0
30/10:30pm 1.9 0.1 1.5 97 0.2 CALM 0 0 0 0 1020.5 1021.3 0.0
30/10:00pm 2.4 -0.4 2.1 98 0.1 W 6 7 3 4 1020.7 1021.5 0.0
30/09:30pm 2.7 0.7 2.4 98 0.1 W 2 7 1 4 1020.7 1021.5 0.0
30/09:00pm 2.9 1.3 2.6 98 0.1 CALM 0 2 0 1 1020.9 1021.7 0.0
30/08:30pm 2.8 0.1 2.5 98 0.1 WSW 6 9 3 5 1020.8 1021.6 0.0
30/08:00pm 3.4 0.6 3.0 97 0.2 SSW 7 9 4 5 1020.7 1021.5 0.0
30/07:30pm 3.8 1.0 3.4 97 0.2 SW 7 11 4 6 1020.8 1021.6 0.0
30/07:00pm 4.2 1.5 3.5 95 0.3 SSW 7 11 4 6 1020.6 1021.4 0.0
30/06:30pm 4.2 1.7 3.5 95 0.3 SSW 6 9 3 5 1020.4 1021.1 0.0
30/06:00pm 4.2 1.4 3.3 94 0.4 SW 7 9 4 5 1020.2 1020.9 0.0
30/05:30pm 4.6 1.0 3.1 90 0.6 SW 11 17 6 9 1020.2 1020.9 0.0
30/05:00pm 5.0 1.1 3.2 88 0.8 SW 13 22 7 12 1020.1 1020.8 0.0
30/04:30pm 5.3 1.7 3.0 85 1.0 SW 11 17 6 9 1019.9 1020.6 0.0
30/04:00pm 5.3 1.3 2.8 84 1.1 SSW 13 19 7 10 1020.0 1020.7 0.0
30/03:30pm 5.2 1.2 2.7 84 1.1 SSW 13 26 7 14 1020.1 1020.8 0.0
30/03:00pm 5.8 1.0 2.8 81 1.3 SW 17 30 9 16 1020.3 1021.0 0.0
30/02:30pm 5.4 1.8 3.1 85 1.0 SSW 11 15 6 8 1020.2 1020.9 0.0
30/02:00pm 5.0 1.0 2.9 86 0.9 SSW 13 22 7 12 1020.3 1021.0 0.0
30/01:30pm 4.9 0.1 2.6 85 1.0 SW 17 30 9 16 1020.2 1020.9 0.0
30/01:00pm 5.4 -0.3 3.1 85 1.0 WSW 22 33 12 18 1020.2 1020.9 0.0
30/12:30pm 5.4 1.2 3.6 88 0.8 SW 15 22 8 12 1020.4 1021.1 0.0
30/12:00pm 5.3 0.2 3.3 87 0.9 WSW 19 24 10 13 1020.7 1021.5 0.0
30/11:30am 5.0 0.4 3.5 90 0.7 SW 17 24 9 13 1021.4 1022.1 0.0
30/11:00am 5.0 1.1 3.3 89 0.7 SW 13 24 7 13 1021.5 1022.2 0.0
30/10:30am 4.8 0.9 3.5 91 0.6 SW 13 22 7 12 1021.6 1022.3 0.0
30/10:00am 4.6 0.4 3.9 95 0.3 SW 15 24 8 13 1021.5 1022.2 0.0
30/09:30am 3.8 -0.1 3.5 98 0.1 SW 13 22 7 12 1021.7 1022.5 0.0
30/09:00am 3.7 -0.5 3.6 99 0.0 SW 15 22 8 12 1021.6 1022.3 8.4
30/08:30am 3.7 -0.9 3.6 99 0.0 SW 17 24 9 13 1021.4 1022.1 8.4
30/08:00am 3.5 -1.6 3.2 98 0.1 SW 19 32 10 17 1021.3 1022.0 8.2
30/07:30am 3.6 -1.1 3.3 98 0.1 SW 17 26 9 14 1020.8 1021.6 7.6
30/07:00am 3.7 -0.2 3.6 99 0.0 SW 13 24 7 13 1020.6 1021.4 7.6
30/06:30am 3.7 -0.2 3.6 99 0.0 SW 13 20 7 11 1020.3 1021.0 7.6
30/06:00am 3.6 -0.7 3.5 99 0.0 SW 15 22 8 12 1020.1 1020.8 7.6
30/05:30am 3.6 -0.3 3.5 99 0.0 SW 13 20 7 11 1020.0 1020.7 7.6
30/05:00am 3.5 -0.8 3.4 99 0.0 SW 15 24 8 13 1019.9 1020.6 7.6
30/04:30am 3.9 0.1 3.8 99 0.0 SSW 13 22 7 12 1019.9 1020.6 7.6
30/04:00am 3.9 0.5 3.8 99 0.0 SSW 11 19 6 10 1019.7 1020.5 7.4
30/03:30am 3.9 0.1 3.8 99 0.0 SW 13 20 7 11 1019.9 1020.6 7.2
30/03:00am 3.9 0.0 3.6 98 0.1 SW 13 20 7 11 1020.1 1020.8 7.2
30/02:30am 3.8 -0.1 3.5 98 0.1 SW 13 20 7 11 1020.3 1021.0 7.2
30/02:00am 3.7 0.2 3.3 97 0.2 SW 11 19 6 10 1020.4 1021.1 7.0
30/01:30am 3.7 -1.0 3.3 97 0.2 SW 17 26 9 14 1020.8 1021.6 6.8
30/01:00am 4.2 -0.8 3.6 96 0.3 SW 19 24 10 13 1020.8 1021.6 6.2
30/12:30am 4.2 0.0 3.8 97 0.2 SW 15 22 8 12 1020.9 1021.7 5.8
30/12:00am 4.2 -1.0 3.6 96 0.3 SW 20 30 11 16 1020.8 1021.6 5.2
 
Date/Time
EST
Temp
°C
App
Temp
°C
Dew
Point
Rel
Hum
%
Delta-T
°C
Wind Press
QNH
hPa
Press
MSL
hPa
Rain
since 9 am
mm
Dir
 
Spd
km/h
Gust
km/h
Spd
kts
Gust
kts
29/11:30pm 4.3 -0.9 3.7 96 0.3 SW 20 32 11 17 1020.8 1021.6 5.0
29/11:00pm 4.4 -1.1 3.8 96 0.3 SW 22 33 12 18 1021.0 1021.8 4.8
29/10:30pm 4.2 -0.4 3.8 97 0.2 SW 17 30 9 16 1021.1 1021.9 4.8
29/10:00pm 4.5 -0.5 3.6 94 0.4 SW 19 28 10 15 1020.9 1021.7 4.0
29/09:30pm 4.3 -0.8 3.3 93 0.4 SW 19 28 10 15 1020.9 1021.7 4.0
29/09:00pm 4.5 0.3 3.8 95 0.3 SW 15 24 8 13 1020.9 1021.7 4.0
29/08:30pm 4.4 -0.6 3.5 94 0.4 SW 19 30 10 16 1020.8 1021.6 4.0
29/08:00pm 4.2 0.0 3.8 97 0.2 SW 15 22 8 12 1020.9 1021.7 4.0
29/07:30pm 4.2 0.1 4.1 99 0.0 SW 15 22 8 12 1020.7 1021.5 3.2
29/07:00pm 3.9 0.0 3.6 98 0.1 SSW 13 20 7 11 1020.7 1021.5 3.2
29/06:30pm 4.8 0.3 4.1 95 0.3 SW 17 26 9 14 1020.2 1020.9 1.8
29/06:08pm 4.8 0.7 4.1 95 0.3 SW 15 33 8 18 1020.0 1020.7 1.4
29/06:00pm 4.8 1.8 4.1 95 0.3 SSW 9 13 5 7 1020.0 1020.7 1.2
29/05:30pm 5.0 -0.6 3.7 91 0.6 WSW 22 30 12 16 1019.7 1020.5 0.6
29/05:00pm 5.0 -0.6 3.7 91 0.6 WSW 22 32 12 17 1019.6 1020.4 0.4
29/04:30pm 5.0 -0.6 3.7 91 0.6 WSW 22 33 12 18 1019.5 1020.3 0.0
29/04:00pm 5.2 -0.8 3.4 88 0.8 WSW 24 32 13 17 1019.3 1020.0 0.0
29/03:30pm 5.2 -0.3 3.9 91 0.6 WSW 22 32 12 17 1019.4 1020.2 0.0
29/03:00pm 5.1 -0.9 3.3 88 0.8 WSW 24 33 13 18 1019.3 1020.0 0.0
29/02:30pm 5.4 -1.1 2.4 81 1.3 WSW 26 39 14 21 1019.2 1019.9 0.0
29/02:15pm 5.3 -1.6 2.3 81 1.3 WSW 28 46 15 25 1019.2 1019.9 0.0
29/02:00pm 5.6 -1.7 2.3 79 1.4 WSW 30 39 16 21 1019.2 1019.9 0.0
29/01:30pm 5.8 -0.9 1.7 75 1.7 SW 26 44 14 24 1019.3 1020.0 0.0
29/01:00pm 5.7 -1.4 1.4 74 1.8 SW 28 41 15 22 1019.4 1020.2 0.0
29/12:30pm 5.5 -1.2 1.4 75 1.7 WSW 26 39 14 21 1019.9 1020.6 0.0
29/12:17pm 5.2 -2.8 0.4 71 1.9 WSW 32 56 17 30 1019.9 1020.6 0.0
29/12:00pm 5.0 -2.6 0.4 72 1.9 WSW 30 39 16 21 1020.0 1020.7 0.0
29/11:44am 5.2 -2.1 0.0 69 2.1 WSW 28 46 15 25 1020.1 1020.8 0.0
29/11:30am 5.1 -2.2 -0.3 68 2.1 WSW 28 41 15 22 1020.4 1021.1 0.0
29/11:19am 4.9 -2.6 -1.1 65 2.3 WSW 28 48 15 26 1020.5 1021.3 0.0
29/11:00am 4.6 -2.9 -1.2 66 2.2 WSW 28 44 15 24 1020.6 1021.4 0.0
29/10:30am 4.7 -3.1 -1.1 66 2.3 WSW 30 43 16 23 1020.6 1021.4 0.0
29/10:00am 4.2 -2.7 -2.6 61 2.5 WSW 24 39 13 21 1020.6 1021.4 0.0
29/09:30am 3.6 -2.8 -1.9 67 2.1 WSW 22 37 12 20 1020.9 1021.7 0.0
29/09:00am 3.1 -1.9 -1.3 73 1.7 SW 15 28 8 15 1021.0 1021.8 3.4
29/08:30am 2.8 -3.0 -1.4 74 1.6 WSW 19 32 10 17 1021.0 1021.8 3.4
29/08:00am 2.1 -2.0 -0.5 83 1.0 SW 11 17 6 9 1020.9 1021.7 3.4
29/07:30am 1.6 -2.2 -0.5 86 0.8 SW 9 17 5 9 1020.7 1021.5 3.4
29/07:00am 1.3 -2.0 0.0 91 0.5 SE 7 11 4 6 1020.8 1021.6 3.4
29/06:30am 1.3 -1.6 -0.8 86 0.8 WSW 4 9 2 5 1020.6 1021.4 3.4
29/06:00am 1.5 -1.3 -0.6 86 0.8 WSW 4 7 2 4 1020.4 1021.1 3.4
29/05:30am 1.6 -2.9 -0.2 88 0.7 SW 13 28 7 15 1020.8 1021.6 3.4
29/05:00am 1.5 -2.3 -0.6 86 0.8 SW 9 17 5 9 1020.8 1021.6 3.4
29/04:30am 1.8 -2.3 0.0 88 0.7 SW 11 20 6 11 1020.6 1021.4 3.4
29/04:00am 1.9 -1.3 0.7 92 0.5 SSW 7 11 4 6 1020.5 1021.3 3.4
29/03:30am 2.0 -1.5 1.1 94 0.4 SW 9 15 5 8 1020.6 1021.4 3.4
29/03:00am 2.1 -2.1 1.4 95 0.3 SW 13 19 7 10 1020.9 1021.7 3.4
29/02:30am 2.4 -2.2 1.8 96 0.2 SSW 15 30 8 16 1021.0 1021.8 3.4
29/02:00am 3.0 -2.9 2.0 93 0.4 SW 22 37 12 20 1021.1 1021.9 3.2
29/01:57am 3.1 -2.4 2.1 93 0.4 SW 20 37 11 20 1021.1 1021.9 3.2
29/01:30am 3.2 -0.1 2.5 95 0.3 SW 9 13 5 7 1021.4 1022.1 3.0
29/01:00am 3.7 0.1 3.0 95 0.3 SW 11 20 6 11 1021.4 1022.1 3.0
29/12:30am 3.8 0.2 3.1 95 0.3 SW 11 17 6 9 1021.4 1022.1 3.0
29/12:00am 4.0 0.5 3.3 95 0.3 SW 11 17 6 9 1021.5 1022.2 3.0
 
Date/Time
EST
Temp
°C
App
Temp
°C
Dew
Point
Rel
Hum
%
Delta-T
°C
Wind Press
QNH
hPa
Press
MSL
hPa
Rain
since 9 am
mm
Dir
 
Spd
km/h
Gust
km/h
Spd
kts
Gust
kts
28/11:30pm 4.0 0.4 3.1 94 0.4 SW 11 19 6 10 1021.5 1022.2 3.0
28/11:00pm 3.9 -0.4 3.2 95 0.3 WSW 15 20 8 11 1021.7 1022.5 3.0
28/10:30pm 3.9 -0.4 3.2 95 0.3 SW 15 20 8 11 1021.8 1022.6 3.0
28/10:00pm 3.9 -0.4 3.5 97 0.2 WSW 15 19 8 10 1022.2 1023.0 3.0
28/09:30pm 4.0 0.2 3.7 98 0.1 WSW 13 22 7 12 1022.2 1023.0 3.0
28/09:00pm 3.9 1.2 3.6 98 0.1 SW 7 11 4 6 1022.3 1023.1 3.0
28/08:30pm 3.9 1.2 3.8 99 0.0 SW 7 13 4 7 1022.3 1023.1 3.0
28/08:00pm 3.8 0.3 3.7 99 0.0 SSW 11 17 6 9 1022.3 1023.1 3.0
28/07:30pm 3.8 0.0 3.7 99 0.0 SW 13 20 7 11 1022.2 1023.0 3.0
28/07:00pm 4.1 0.7 4.0 99 0.0 SSW 11 17 6 9 1022.0 1022.8 2.8

Other Formats:

Comma delimited format used in spreadsheet applications
http://www.bom.gov.au/fwo/IDV60801/IDV60801.94913.axf

JavaScript Object Notation format (JSON) in row-major order
http://www.bom.gov.au/fwo/IDV60801/IDV60801.94913.json